createdAt,value
2018-12-06T00:00:44.192Z,76.40
2018-12-06T00:01:44.277Z,69.30
2018-12-06T00:02:44.086Z,72.00
2018-12-06T00:03:44.031Z,75.00
2018-12-06T00:04:44.189Z,75.50
2018-12-06T00:05:43.931Z,82.70
2018-12-06T00:06:43.875Z,73.60
2018-12-06T00:07:43.983Z,73.30
2018-12-06T00:08:43.774Z,74.10
2018-12-06T00:09:43.721Z,67.20
2018-12-06T00:10:43.685Z,73.70
2018-12-06T00:11:43.621Z,69.00
2018-12-06T00:12:43.582Z,69.90
2018-12-06T00:13:43.516Z,76.60
2018-12-06T00:14:43.687Z,63.60
2018-12-06T00:15:43.406Z,68.20
2018-12-06T00:16:43.363Z,69.70
2018-12-06T00:17:43.319Z,70.90
2018-12-06T00:18:43.314Z,71.70
2018-12-06T00:19:43.390Z,77.90
2018-12-06T00:20:43.153Z,73.50
2018-12-06T00:21:43.097Z,67.40
2018-12-06T00:22:43.193Z,70.40
2018-12-06T00:23:42.993Z,68.80
2018-12-06T00:24:42.945Z,65.70
2018-12-06T00:25:43.106Z,64.40
2018-12-06T00:26:42.839Z,66.80
2018-12-06T00:27:42.785Z,66.00
2018-12-06T00:28:43.005Z,64.10
2018-12-06T00:29:42.690Z,73.00
2018-12-06T00:30:42.638Z,64.00
2018-12-06T00:31:42.799Z,64.90
2018-12-06T00:32:42.526Z,69.60
2018-12-06T00:33:42.476Z,73.80
2018-12-06T00:34:42.605Z,71.50
2018-12-06T00:35:42.375Z,70.20
2018-12-06T00:36:42.320Z,72.40
2018-12-06T00:37:42.505Z,71.40
2018-12-06T00:38:42.220Z,74.90
2018-12-06T00:39:42.165Z,71.00
2018-12-06T00:40:42.307Z,85.50
2018-12-06T00:41:42.060Z,90.00
2018-12-06T00:42:42.012Z,77.00
2018-12-06T00:43:42.102Z,79.70
2018-12-06T00:44:41.910Z,74.40
2018-12-06T00:45:41.852Z,74.00
2018-12-06T00:46:42.005Z,72.00
2018-12-06T00:47:41.750Z,75.10
2018-12-06T00:48:41.702Z,78.20
2018-12-06T00:49:41.801Z,75.10
2018-12-06T00:50:41.593Z,63.00
2018-12-06T00:51:41.541Z,73.90
2018-12-06T00:52:41.700Z,75.20
2018-12-06T00:53:41.441Z,72.70
2018-12-06T00:54:41.385Z,72.50
2018-12-06T00:55:41.398Z,68.30
2018-12-06T00:56:41.281Z,77.90
2018-12-06T00:57:41.230Z,74.90
2018-12-06T00:58:41.405Z,76.70
2018-12-06T00:59:41.124Z,71.70
2018-12-06T01:00:41.077Z,75.10
2018-12-06T01:01:41.223Z,75.30
2018-12-06T01:02:40.968Z,73.70
2018-12-06T01:03:40.918Z,74.20
2018-12-06T01:04:41.010Z,78.40
2018-12-06T01:05:40.816Z,80.30
2018-12-06T01:06:40.765Z,68.20
2018-12-06T01:07:40.912Z,69.20
2018-12-06T01:08:40.662Z,69.10
2018-12-06T01:09:40.608Z,72.30
2018-12-06T01:10:40.721Z,66.50
2018-12-06T01:11:40.506Z,72.90
2018-12-06T01:12:40.451Z,68.50
2018-12-06T01:13:40.609Z,75.70
2018-12-06T01:14:40.349Z,72.70
2018-12-06T01:15:40.298Z,68.60
2018-12-06T01:16:40.421Z,75.40
2018-12-06T01:17:40.193Z,77.40
2018-12-06T01:18:40.141Z,68.70
2018-12-06T01:19:40.326Z,70.60
2018-12-06T01:20:40.038Z,71.60
2018-12-06T01:21:39.996Z,67.60
2018-12-06T01:22:40.129Z,70.70
2018-12-06T01:23:39.882Z,65.60
2018-12-06T01:24:39.828Z,68.30
2018-12-06T01:25:39.912Z,64.10
2018-12-06T01:26:39.730Z,65.60
2018-12-06T01:27:39.676Z,71.40
2018-12-06T01:28:39.825Z,67.00
2018-12-06T01:29:39.571Z,69.40
2018-12-06T01:30:39.519Z,66.80
2018-12-06T01:31:39.627Z,68.40
2018-12-06T01:32:39.413Z,66.70
2018-12-06T01:33:39.369Z,67.80
2018-12-06T01:34:39.522Z,62.90
2018-12-06T01:35:39.261Z,68.60
2018-12-06T01:36:39.207Z,67.90
2018-12-06T01:37:39.321Z,62.60
2018-12-06T01:38:39.105Z,72.10
2018-12-06T01:39:39.056Z,61.60
2018-12-06T01:40:39.227Z,58.60
2018-12-06T01:41:38.954Z,62.20
2018-12-06T01:42:38.899Z,65.10
2018-12-06T01:43:39.024Z,65.80
2018-12-06T01:44:38.796Z,65.90
2018-12-06T01:45:38.757Z,59.20
2018-12-06T01:46:38.936Z,59.20
2018-12-06T01:47:38.640Z,59.30
2018-12-06T01:48:38.589Z,65.50
2018-12-06T01:49:38.730Z,62.70
2018-12-06T01:50:38.486Z,64.10
2018-12-06T01:51:38.443Z,61.30
2018-12-06T01:52:38.525Z,61.50
2018-12-06T01:53:38.336Z,67.40
2018-12-06T01:54:38.277Z,64.30
2018-12-06T01:55:38.246Z,66.10
2018-12-06T01:56:38.178Z,62.40
2018-12-06T01:57:38.141Z,62.90
2018-12-06T01:58:38.072Z,66.00
2018-12-06T01:59:38.020Z,65.70
2018-12-06T02:00:37.985Z,64.90
2018-12-06T02:01:37.921Z,66.90
2018-12-06T02:02:38.034Z,77.10
2018-12-06T02:03:37.817Z,73.30
2018-12-06T02:04:37.763Z,80.10
2018-12-06T02:05:37.721Z,74.70
2018-12-06T02:06:37.660Z,72.00
2018-12-06T02:07:37.845Z,79.70
2018-12-06T02:08:37.555Z,77.80
2018-12-06T02:09:37.507Z,73.20
2018-12-06T02:10:37.455Z,83.20
2018-12-06T02:11:37.406Z,71.60
2018-12-06T02:12:37.366Z,81.30
2018-12-06T02:13:37.302Z,75.80
2018-12-06T02:14:37.439Z,78.60
2018-12-06T02:15:37.197Z,87.80
2018-12-06T02:16:37.144Z,84.40
2018-12-06T02:17:37.110Z,85.40
2018-12-06T02:18:37.044Z,83.00
2018-12-06T02:19:37.142Z,82.60
2018-12-06T02:20:36.938Z,79.60
2018-12-06T02:21:36.889Z,84.00
2018-12-06T02:22:36.849Z,87.10
2018-12-06T02:23:36.784Z,82.60
2018-12-06T02:24:36.944Z,81.60
2018-12-06T02:25:36.677Z,83.70
2018-12-06T02:26:36.627Z,82.90
2018-12-06T02:27:36.574Z,78.90
2018-12-06T02:28:36.521Z,82.30
2018-12-06T02:29:36.638Z,75.00
2018-12-06T02:30:36.419Z,73.60
2018-12-06T02:31:36.367Z,76.80
2018-12-06T02:32:36.333Z,81.10
2018-12-06T02:33:36.274Z,84.80
2018-12-06T02:34:36.459Z,80.30
2018-12-06T02:35:36.160Z,83.20
2018-12-06T02:36:36.103Z,80.00
2018-12-06T02:37:36.050Z,83.60
2018-12-06T02:38:36.009Z,80.60
2018-12-06T02:39:36.153Z,89.90
2018-12-06T02:40:35.902Z,85.90
2018-12-06T02:41:35.846Z,82.80
2018-12-06T02:42:35.817Z,89.00
2018-12-06T02:43:35.745Z,80.50
2018-12-06T02:44:35.850Z,85.10
2018-12-06T02:45:35.641Z,81.60
2018-12-06T02:46:35.600Z,84.70
2018-12-06T02:47:35.560Z,89.10
2018-12-06T02:48:35.498Z,90.30
2018-12-06T02:49:35.573Z,93.10
2018-12-06T02:50:35.374Z,91.80
2018-12-06T02:51:35.336Z,96.00
2018-12-06T02:52:35.285Z,91.60
2018-12-06T02:53:35.216Z,99.30
2018-12-06T02:54:35.375Z,102.50
2018-12-06T02:55:35.122Z,91.30
2018-12-06T02:56:35.072Z,95.90
2018-12-06T02:57:35.017Z,94.80
2018-12-06T02:58:34.966Z,89.00
2018-12-06T02:59:35.057Z,96.00
2018-12-06T03:00:34.859Z,97.70
2018-12-06T03:01:34.808Z,89.40
2018-12-06T03:02:34.773Z,90.90
2018-12-06T03:03:34.704Z,92.00
2018-12-06T03:04:34.874Z,85.50
2018-12-06T03:05:34.598Z,81.30
2018-12-06T03:06:34.547Z,79.40
2018-12-06T03:07:34.516Z,82.70
2018-12-06T03:08:34.441Z,80.20
2018-12-06T03:09:34.575Z,83.90
2018-12-06T03:10:34.344Z,88.50
2018-12-06T03:11:34.283Z,90.60
2018-12-06T03:12:34.254Z,86.30
2018-12-06T03:13:34.181Z,84.20
2018-12-06T03:14:34.374Z,80.00
2018-12-06T03:15:34.096Z,81.50
2018-12-06T03:16:34.039Z,79.10
2018-12-06T03:17:33.984Z,76.40
2018-12-06T03:18:33.931Z,77.20
2018-12-06T03:19:34.155Z,78.00
2018-12-06T03:20:33.823Z,73.30
2018-12-06T03:21:33.769Z,82.50
2018-12-06T03:22:33.738Z,76.80
2018-12-06T03:23:33.671Z,78.10
2018-12-06T03:24:33.783Z,76.60
2018-12-06T03:25:33.553Z,68.00
2018-12-06T03:26:33.506Z,75.30
2018-12-06T03:27:33.456Z,74.10
2018-12-06T03:28:33.406Z,69.50
2018-12-06T03:29:33.368Z,76.20
2018-12-06T03:30:33.301Z,72.30
2018-12-06T03:31:33.479Z,70.60
2018-12-06T03:32:33.203Z,67.00
2018-12-06T03:33:33.147Z,62.10
2018-12-06T03:34:33.093Z,65.90
2018-12-06T03:35:33.041Z,69.30
2018-12-06T03:36:32.999Z,70.70
2018-12-06T03:37:32.934Z,69.70
2018-12-06T03:38:33.092Z,73.30
2018-12-06T03:39:32.838Z,66.20
2018-12-06T03:40:32.786Z,72.40
2018-12-06T03:41:32.729Z,70.90
2018-12-06T03:42:32.678Z,69.30
2018-12-06T03:43:32.783Z,68.50
2018-12-06T03:44:32.579Z,66.60
2018-12-06T03:45:32.555Z,69.50
2018-12-06T03:46:32.474Z,68.00
2018-12-06T03:47:32.432Z,70.70
2018-12-06T03:48:32.372Z,66.30
2018-12-06T03:49:32.320Z,61.50
2018-12-06T03:50:32.486Z,60.50
2018-12-06T03:51:32.224Z,63.20
2018-12-06T03:52:32.165Z,55.20
2018-12-06T03:53:32.114Z,54.60
2018-12-06T03:54:32.065Z,54.00
2018-12-06T03:55:32.198Z,50.70
2018-12-06T03:56:31.957Z,54.90
2018-12-06T03:57:31.906Z,50.40
2018-12-06T03:58:31.867Z,49.90
2018-12-06T03:59:31.799Z,50.50
2018-12-06T04:00:31.999Z,50.60
2018-12-06T04:01:31.705Z,50.10
2018-12-06T04:02:31.648Z,45.90
2018-12-06T04:03:31.615Z,50.00
2018-12-06T04:04:31.547Z,44.10
2018-12-06T04:05:31.687Z,44.50
2018-12-06T04:06:31.441Z,43.40
2018-12-06T04:07:31.387Z,44.80
2018-12-06T04:08:31.363Z,46.50
2018-12-06T04:09:31.286Z,49.30
2018-12-06T04:10:31.325Z,46.20
2018-12-06T04:11:31.179Z,42.50
2018-12-06T04:12:31.124Z,43.40
2018-12-06T04:13:31.119Z,41.30
2018-12-06T04:14:31.030Z,39.10
2018-12-06T04:15:31.193Z,42.80
2018-12-06T04:16:30.925Z,43.10
2018-12-06T04:17:30.873Z,43.80
2018-12-06T04:18:30.842Z,49.10
2018-12-06T04:19:30.774Z,45.60
2018-12-06T04:20:30.897Z,46.10
2018-12-06T04:21:30.668Z,51.80
2018-12-06T04:22:30.622Z,51.30
2018-12-06T04:23:30.579Z,49.30
2018-12-06T04:24:30.513Z,51.10
2018-12-06T04:25:30.603Z,50.30
2018-12-06T04:26:30.411Z,52.40
2018-12-06T04:27:30.359Z,57.00
2018-12-06T04:28:30.329Z,63.10
2018-12-06T04:29:30.256Z,57.70
2018-12-06T04:30:30.401Z,56.10
2018-12-06T04:31:30.151Z,56.50
2018-12-06T04:32:30.102Z,52.60
2018-12-06T04:33:30.063Z,53.40
2018-12-06T04:34:30.004Z,53.30
2018-12-06T04:35:30.115Z,53.00
2018-12-06T04:36:29.897Z,51.50
2018-12-06T04:37:29.845Z,49.70
2018-12-06T04:38:29.809Z,54.00
2018-12-06T04:39:29.739Z,51.40
2018-12-06T04:40:29.924Z,53.10
2018-12-06T04:41:29.629Z,50.90
2018-12-06T04:42:29.590Z,50.50
2018-12-06T04:43:29.553Z,53.60
2018-12-06T04:44:29.486Z,50.70
2018-12-06T04:45:29.604Z,51.90
2018-12-06T04:46:29.454Z,56.60
2018-12-06T04:47:29.330Z,60.50
2018-12-06T04:48:29.293Z,56.30
2018-12-06T04:49:29.223Z,52.60
2018-12-06T04:50:29.415Z,48.60
2018-12-06T04:51:29.125Z,46.30
2018-12-06T04:52:29.082Z,47.50
2018-12-06T04:53:29.042Z,50.10
2018-12-06T04:54:28.981Z,47.20
2018-12-06T04:55:29.118Z,50.60
2018-12-06T04:56:28.860Z,49.50
2018-12-06T04:57:28.817Z,51.20
2018-12-06T04:58:28.782Z,52.00
2018-12-06T04:59:28.713Z,50.70
2018-12-06T05:00:28.825Z,50.60
2018-12-06T05:01:28.611Z,53.10
2018-12-06T05:02:28.563Z,48.50
2018-12-06T05:03:28.524Z,48.50
2018-12-06T05:04:28.459Z,48.00
2018-12-06T05:05:28.617Z,51.60
2018-12-06T05:06:28.364Z,48.80
2018-12-06T05:07:28.304Z,47.90
2018-12-06T05:08:28.269Z,52.30
2018-12-06T05:09:28.200Z,49.60
2018-12-06T05:10:28.149Z,45.70
2018-12-06T05:11:28.098Z,50.60
2018-12-06T05:12:28.116Z,48.60
2018-12-06T05:13:28.001Z,46.80
2018-12-06T05:14:27.951Z,46.50
2018-12-06T05:15:27.904Z,46.50
2018-12-06T05:16:27.844Z,57.00
2018-12-06T05:17:27.928Z,48.90
2018-12-06T05:18:27.741Z,53.00
2018-12-06T05:19:27.690Z,48.30
2018-12-06T05:20:27.658Z,47.10
2018-12-06T05:21:27.588Z,46.90
2018-12-06T05:22:27.725Z,44.40
2018-12-06T05:23:27.485Z,52.10
2018-12-06T05:24:27.437Z,55.90
2018-12-06T05:25:27.389Z,53.70
2018-12-06T05:26:27.337Z,52.90
2018-12-06T05:27:27.286Z,52.30
2018-12-06T05:28:27.228Z,58.90
2018-12-06T05:29:27.344Z,58.80
2018-12-06T05:30:27.119Z,51.70
2018-12-06T05:31:27.092Z,48.40
2018-12-06T05:32:27.051Z,50.30
2018-12-06T05:33:26.969Z,51.20
2018-12-06T05:34:27.130Z,50.30
2018-12-06T05:35:26.873Z,50.10
2018-12-06T05:36:26.815Z,52.00
2018-12-06T05:37:26.787Z,61.30
2018-12-06T05:38:26.717Z,50.40
2018-12-06T05:39:26.847Z,49.70
2018-12-06T05:40:26.619Z,47.30
2018-12-06T05:41:26.560Z,46.80
2018-12-06T05:42:26.529Z,49.20
2018-12-06T05:43:26.459Z,50.70
2018-12-06T05:44:26.632Z,54.40
2018-12-06T05:45:26.353Z,56.30
2018-12-06T05:46:26.309Z,56.80
2018-12-06T05:47:26.275Z,66.30
2018-12-06T05:48:26.206Z,57.80
2018-12-06T05:49:26.352Z,57.10
2018-12-06T05:50:26.104Z,53.50
2018-12-06T05:51:26.055Z,56.80
2018-12-06T05:52:26.018Z,51.60
2018-12-06T05:53:25.947Z,50.90
2018-12-06T05:54:26.050Z,49.80
2018-12-06T05:55:25.849Z,47.00
2018-12-06T05:56:25.794Z,48.30
2018-12-06T05:57:25.743Z,47.60
2018-12-06T05:58:25.692Z,51.40
2018-12-06T05:59:25.947Z,54.10
2018-12-06T06:00:25.589Z,56.00
2018-12-06T06:01:25.535Z,61.10
2018-12-06T06:02:25.496Z,61.20
2018-12-06T06:03:25.469Z,64.20
2018-12-06T06:04:25.562Z,58.70
2018-12-06T06:05:25.327Z,54.70
2018-12-06T06:06:25.277Z,57.90
2018-12-06T06:07:25.240Z,56.30
2018-12-06T06:08:25.184Z,61.60
2018-12-06T06:09:25.695Z,65.60
2018-12-06T06:10:25.073Z,61.40
2018-12-06T06:11:25.024Z,56.40
2018-12-06T06:12:24.994Z,58.10
2018-12-06T06:13:24.921Z,64.10
2018-12-06T06:14:25.063Z,58.20
2018-12-06T06:15:24.824Z,55.30
2018-12-06T06:16:24.769Z,55.30
2018-12-06T06:17:24.719Z,55.20
2018-12-06T06:18:24.666Z,60.80
2018-12-06T06:19:24.612Z,59.50
2018-12-06T06:20:24.561Z,56.30
2018-12-06T06:21:24.506Z,64.10
2018-12-06T06:22:24.458Z,59.40
2018-12-06T06:23:24.403Z,65.20
2018-12-06T06:24:24.357Z,65.50
2018-12-06T06:25:24.318Z,64.50
2018-12-06T06:26:24.253Z,66.50
2018-12-06T06:27:24.202Z,68.60
2018-12-06T06:28:24.148Z,62.50
2018-12-06T06:29:24.103Z,73.80
2018-12-06T06:30:24.040Z,65.10
2018-12-06T06:31:23.991Z,66.10
2018-12-06T06:32:23.938Z,79.80
2018-12-06T06:33:23.919Z,72.30
2018-12-06T06:34:23.838Z,66.70
2018-12-06T06:35:23.969Z,72.20
2018-12-06T06:36:23.737Z,72.90
2018-12-06T06:37:23.684Z,66.70
2018-12-06T06:38:23.623Z,66.90
2018-12-06T06:39:23.587Z,63.10
2018-12-06T06:40:23.531Z,62.40
2018-12-06T06:41:23.483Z,64.30
2018-12-06T06:42:23.428Z,60.20
2018-12-06T06:43:23.371Z,60.60
2018-12-06T06:44:23.314Z,60.70
2018-12-06T06:45:23.270Z,61.40
2018-12-06T06:46:23.244Z,53.60
2018-12-06T06:47:23.174Z,60.20
2018-12-06T06:48:23.120Z,67.00
2018-12-06T06:49:23.103Z,55.80
2018-12-06T06:50:23.011Z,51.70
2018-12-06T06:51:22.961Z,57.90
2018-12-06T06:52:22.924Z,51.40
2018-12-06T06:53:22.867Z,48.60
2018-12-06T06:54:22.805Z,53.10
2018-12-06T06:55:22.755Z,46.70
2018-12-06T06:56:22.711Z,49.60
2018-12-06T06:57:22.653Z,52.60
2018-12-06T06:58:22.681Z,51.20
2018-12-06T06:59:26.140Z,47.90
2018-12-06T07:00:22.516Z,52.80
2018-12-06T07:01:22.446Z,48.40
2018-12-06T07:02:22.396Z,53.30
2018-12-06T07:03:22.340Z,53.60
2018-12-06T07:04:22.292Z,48.70
2018-12-06T07:05:22.238Z,48.50
2018-12-06T07:06:22.188Z,46.60
2018-12-06T07:07:22.137Z,46.10
2018-12-06T07:08:22.118Z,45.50
2018-12-06T07:09:22.034Z,46.00
2018-12-06T07:10:21.983Z,48.00
2018-12-06T07:11:21.933Z,42.40
2018-12-06T07:12:21.892Z,46.90
2018-12-06T07:13:22.973Z,44.90
2018-12-06T07:14:21.776Z,42.70
2018-12-06T07:15:21.725Z,39.60
2018-12-06T07:16:21.674Z,44.00
2018-12-06T07:17:21.622Z,39.20
2018-12-06T07:18:21.571Z,41.80
2018-12-06T07:19:21.519Z,44.40
2018-12-06T07:20:21.711Z,40.80
2018-12-06T07:21:21.538Z,41.20
2018-12-06T07:22:21.424Z,41.20
2018-12-06T07:23:21.388Z,42.60
2018-12-06T07:24:21.267Z,43.10
2018-12-06T07:25:21.211Z,39.00
2018-12-06T07:26:21.168Z,37.30
2018-12-06T07:27:21.113Z,40.20
2018-12-06T07:28:21.062Z,40.60
2018-12-06T07:29:21.032Z,41.10
2018-12-06T07:30:20.953Z,44.80
2018-12-06T07:31:20.904Z,37.60
2018-12-06T07:32:20.855Z,41.30
2018-12-06T07:33:20.800Z,44.20
2018-12-06T07:34:20.751Z,42.70
2018-12-06T07:35:20.699Z,41.40
2018-12-06T07:36:20.662Z,41.10
2018-12-06T07:37:20.591Z,38.90
2018-12-06T07:38:20.547Z,39.00
2018-12-06T07:39:20.496Z,39.30
2018-12-06T07:40:20.443Z,37.70
2018-12-06T07:41:20.432Z,39.20
2018-12-06T07:42:20.351Z,40.50
2018-12-06T07:43:20.332Z,40.70
2018-12-06T07:44:20.237Z,36.50
2018-12-06T07:45:20.187Z,39.10
2018-12-06T07:46:20.131Z,42.60
2018-12-06T07:47:20.106Z,36.60
2018-12-06T07:48:20.054Z,40.60
2018-12-06T07:49:20.070Z,37.90
2018-12-06T07:50:19.929Z,41.00
2018-12-06T07:51:19.881Z,43.00
2018-12-06T07:52:19.830Z,37.40
2018-12-06T07:53:19.777Z,35.70
2018-12-06T07:54:19.725Z,39.10
2018-12-06T07:55:19.673Z,39.40
2018-12-06T07:56:19.623Z,39.20
2018-12-06T07:57:19.571Z,38.30
2018-12-06T07:58:19.516Z,43.80
2018-12-06T07:59:19.472Z,39.90
2018-12-06T08:00:19.420Z,37.70
2018-12-06T08:01:19.369Z,36.80
2018-12-06T08:02:19.316Z,37.40
2018-12-06T08:03:19.270Z,35.00
2018-12-06T08:04:19.218Z,33.60
2018-12-06T08:05:19.165Z,32.80
2018-12-06T08:06:19.112Z,32.30
2018-12-06T08:07:19.064Z,32.80
2018-12-06T08:08:19.016Z,31.40
2018-12-06T08:09:18.961Z,35.20
2018-12-06T08:10:18.910Z,28.90
2018-12-06T08:11:18.858Z,28.90
2018-12-06T08:12:18.810Z,28.50
2018-12-06T08:13:18.775Z,27.20
2018-12-06T08:14:18.708Z,27.70
2018-12-06T08:15:18.659Z,26.60
2018-12-06T08:16:18.607Z,28.20
2018-12-06T08:17:18.572Z,28.30
2018-12-06T08:18:18.505Z,23.60
2018-12-06T08:19:18.490Z,25.90
2018-12-06T08:20:18.487Z,26.90
2018-12-06T08:21:18.354Z,31.30
2018-12-06T08:22:18.303Z,25.30
2018-12-06T08:23:18.252Z,29.10
2018-12-06T08:24:18.201Z,30.50
2018-12-06T08:25:18.150Z,33.80
2018-12-06T08:26:18.108Z,29.90
2018-12-06T08:27:18.043Z,30.40
2018-12-06T08:28:18.004Z,25.20
2018-12-06T08:29:17.949Z,25.70
2018-12-06T08:30:17.890Z,24.40
2018-12-06T08:31:17.851Z,25.50
2018-12-06T08:32:18.277Z,25.20
2018-12-06T08:33:17.743Z,26.90
2018-12-06T08:34:17.947Z,26.40
2018-12-06T08:35:17.644Z,25.20
2018-12-06T08:36:17.597Z,26.30
2018-12-06T08:37:17.544Z,24.00
2018-12-06T08:38:17.493Z,26.40
2018-12-06T08:39:17.444Z,26.30
2018-12-06T08:40:17.395Z,24.40
2018-12-06T08:41:17.344Z,25.00
2018-12-06T08:42:17.292Z,27.00
2018-12-06T08:43:17.240Z,24.50
2018-12-06T08:44:21.346Z,25.20
2018-12-06T08:45:17.140Z,24.80
2018-12-06T08:46:17.089Z,25.60
2018-12-06T08:47:17.048Z,28.10
2018-12-06T08:48:16.989Z,26.80
2018-12-06T08:49:16.940Z,24.90
2018-12-06T08:50:16.890Z,23.00
2018-12-06T08:51:16.838Z,24.50
2018-12-06T08:52:16.791Z,29.40
2018-12-06T08:53:16.736Z,27.40
2018-12-06T08:54:16.687Z,25.10
2018-12-06T08:55:16.636Z,25.50
2018-12-06T08:56:16.602Z,24.50
2018-12-06T08:57:16.537Z,27.50
2018-12-06T08:58:16.489Z,26.30
2018-12-06T08:59:16.440Z,24.90
2018-12-06T09:00:16.385Z,24.80
2018-12-06T09:01:16.332Z,26.50
2018-12-06T09:02:16.283Z,28.70
2018-12-06T09:03:16.238Z,23.80
2018-12-06T09:04:16.184Z,26.90
2018-12-06T09:05:16.131Z,28.30
2018-12-06T09:06:16.090Z,27.50
2018-12-06T09:07:16.031Z,26.70
2018-12-06T09:08:15.984Z,22.90
2018-12-06T09:09:15.932Z,27.20
2018-12-06T09:10:15.886Z,25.20
2018-12-06T09:11:15.921Z,28.30
2018-12-06T09:12:15.780Z,24.00
2018-12-06T09:13:16.213Z,25.30
2018-12-06T09:14:15.673Z,23.20
2018-12-06T09:15:15.632Z,26.10
2018-12-06T09:16:16.346Z,24.10
2018-12-06T09:17:15.531Z,22.30
2018-12-06T09:18:15.484Z,24.10
2018-12-06T09:19:15.448Z,25.00
2018-12-06T09:20:15.376Z,24.20
2018-12-06T09:21:15.325Z,22.50
2018-12-06T09:22:15.279Z,21.80
2018-12-06T09:23:15.227Z,24.10
2018-12-06T09:24:15.175Z,21.70
2018-12-06T09:25:21.018Z,23.90
2018-12-06T09:26:15.238Z,23.00
2018-12-06T09:27:15.023Z,22.60
2018-12-06T09:28:14.978Z,19.60
2018-12-06T09:29:14.927Z,24.60
2018-12-06T09:30:14.871Z,21.70
2018-12-06T09:31:14.839Z,21.90
2018-12-06T09:32:14.772Z,24.50
2018-12-06T09:33:14.721Z,22.90
2018-12-06T09:34:14.671Z,22.30
2018-12-06T09:35:14.621Z,24.00
2018-12-06T09:36:14.570Z,23.30
2018-12-06T09:37:14.519Z,22.10
2018-12-06T09:38:14.469Z,24.70
2018-12-06T09:39:14.420Z,22.80
2018-12-06T09:40:14.366Z,20.10
2018-12-06T09:41:14.319Z,20.50
2018-12-06T09:42:14.261Z,21.20
2018-12-06T09:43:14.215Z,22.50
2018-12-06T09:44:14.176Z,22.10
2018-12-06T09:45:14.119Z,21.70
2018-12-06T09:46:14.080Z,18.80
2018-12-06T09:47:14.016Z,20.50
2018-12-06T09:48:13.968Z,18.90
2018-12-06T09:49:13.917Z,20.00
2018-12-06T09:50:13.865Z,20.60
2018-12-06T09:51:13.815Z,20.00
2018-12-06T09:52:13.766Z,19.40
2018-12-06T09:53:13.718Z,19.90
2018-12-06T09:54:13.665Z,20.60
2018-12-06T09:55:13.606Z,20.60
2018-12-06T09:56:13.565Z,19.40
2018-12-06T09:57:13.514Z,21.40
2018-12-06T09:58:13.465Z,20.10
2018-12-06T09:59:13.414Z,19.80
2018-12-06T10:00:13.365Z,22.20
2018-12-06T10:01:13.316Z,23.60
2018-12-06T10:02:13.270Z,23.50
2018-12-06T10:03:13.214Z,23.70
2018-12-06T10:04:13.170Z,24.10
2018-12-06T10:05:13.113Z,22.30
2018-12-06T10:06:13.063Z,22.70
2018-12-06T10:07:13.042Z,23.10
2018-12-06T10:08:12.962Z,22.80
2018-12-06T10:09:12.920Z,22.40
2018-12-06T10:10:12.862Z,23.30
2018-12-06T10:11:12.812Z,24.80
2018-12-06T10:12:12.765Z,21.70
2018-12-06T10:13:12.713Z,22.40
2018-12-06T10:14:12.666Z,21.20
2018-12-06T10:15:12.615Z,21.50
2018-12-06T10:16:12.584Z,23.40
2018-12-06T10:17:12.511Z,21.90
2018-12-06T10:18:12.464Z,21.80
2018-12-06T10:19:12.416Z,24.70
2018-12-06T10:20:12.374Z,20.10
2018-12-06T10:21:12.315Z,18.90
2018-12-06T10:22:12.263Z,19.50
2018-12-06T10:23:12.213Z,18.70
2018-12-06T10:24:12.164Z,18.80
2018-12-06T10:25:12.112Z,23.20
2018-12-06T10:26:12.063Z,20.30
2018-12-06T10:27:12.187Z,18.50
2018-12-06T10:28:11.964Z,17.90
2018-12-06T10:29:11.911Z,18.70
2018-12-06T10:30:11.862Z,22.00
2018-12-06T10:31:11.810Z,21.40
2018-12-06T10:32:11.767Z,21.80
2018-12-06T10:33:11.712Z,19.80
2018-12-06T10:34:11.661Z,20.20
2018-12-06T10:35:11.613Z,20.10
2018-12-06T10:36:11.564Z,20.30
2018-12-06T10:37:11.511Z,20.50
2018-12-06T10:38:11.673Z,20.40
2018-12-06T10:39:11.412Z,18.70
2018-12-06T10:40:11.364Z,20.00
2018-12-06T10:41:11.310Z,17.20
2018-12-06T10:42:11.263Z,18.40
2018-12-06T10:43:11.215Z,19.80
2018-12-06T10:44:11.169Z,19.70
2018-12-06T10:45:11.120Z,18.70
2018-12-06T10:46:11.067Z,19.80
2018-12-06T10:47:11.017Z,18.40
2018-12-06T10:48:10.967Z,18.10
2018-12-06T10:49:10.915Z,18.60
2018-12-06T10:50:10.869Z,19.90
2018-12-06T10:51:10.815Z,22.40
2018-12-06T10:52:10.766Z,22.20
2018-12-06T10:53:10.713Z,18.70
2018-12-06T10:54:10.670Z,20.00
2018-12-06T10:55:10.615Z,21.70
2018-12-06T10:56:10.566Z,18.80
2018-12-06T10:57:10.525Z,21.40
2018-12-06T10:58:10.469Z,19.30
2018-12-06T10:59:10.418Z,18.70
2018-12-06T11:00:10.370Z,16.50
2018-12-06T11:01:10.323Z,17.90
2018-12-06T11:02:10.274Z,17.90
2018-12-06T11:03:10.214Z,16.60
2018-12-06T11:04:10.172Z,21.20
2018-12-06T11:05:10.170Z,16.00
2018-12-06T11:06:10.072Z,21.00
2018-12-06T11:07:10.022Z,17.00
2018-12-06T11:08:09.974Z,15.50
2018-12-06T11:09:09.922Z,16.80
2018-12-06T11:10:09.882Z,15.50
2018-12-06T11:11:09.824Z,17.20
2018-12-06T11:12:09.974Z,16.20
2018-12-06T11:13:09.727Z,17.10
2018-12-06T11:14:09.696Z,17.10
2018-12-06T11:15:09.629Z,16.80
2018-12-06T11:16:09.583Z,17.40
2018-12-06T11:17:09.530Z,16.30
2018-12-06T11:18:09.471Z,16.60
2018-12-06T11:19:09.430Z,19.00
2018-12-06T11:20:09.595Z,18.50
2018-12-06T11:21:09.358Z,18.30
2018-12-06T11:22:09.322Z,19.00
2018-12-06T11:23:09.233Z,16.60
2018-12-06T11:24:09.194Z,19.60
2018-12-06T11:25:09.140Z,18.60
2018-12-06T11:26:09.088Z,17.90
2018-12-06T11:27:09.037Z,18.50
2018-12-06T11:28:08.985Z,19.90
2018-12-06T11:29:08.937Z,18.20
2018-12-06T11:30:08.913Z,22.20
2018-12-06T11:31:08.843Z,19.90
2018-12-06T11:32:08.788Z,18.30
2018-12-06T11:33:08.766Z,19.90
2018-12-06T11:34:08.903Z,18.60
2018-12-06T11:35:08.648Z,17.40
2018-12-06T11:36:08.591Z,17.10
2018-12-06T11:37:08.593Z,18.00
2018-12-06T11:38:08.493Z,16.10
2018-12-06T11:39:08.447Z,19.30
2018-12-06T11:40:08.395Z,18.20
2018-12-06T11:41:08.359Z,17.80
2018-12-06T11:42:08.296Z,19.00
2018-12-06T11:43:08.243Z,19.10
2018-12-06T11:44:08.208Z,15.60
2018-12-06T11:45:08.149Z,15.10
2018-12-06T11:46:08.104Z,17.80
2018-12-06T11:47:08.048Z,15.30
2018-12-06T11:48:08.978Z,14.50
2018-12-06T11:49:07.951Z,17.30
2018-12-06T11:50:07.901Z,17.00
2018-12-06T11:51:07.850Z,18.70
2018-12-06T11:52:07.803Z,15.30
2018-12-06T11:53:07.750Z,23.50
2018-12-06T11:54:07.719Z,17.10
2018-12-06T11:55:07.665Z,18.00
2018-12-06T11:56:07.612Z,15.40
2018-12-06T11:57:07.605Z,19.40
2018-12-06T11:58:11.408Z,17.60
2018-12-06T11:59:07.464Z,29.00
2018-12-06T12:00:07.425Z,37.60
2018-12-06T12:01:07.354Z,32.10
2018-12-06T12:02:10.199Z,16.90
2018-12-06T12:03:07.265Z,19.70
2018-12-06T12:04:07.217Z,50.30
2018-12-06T12:05:07.169Z,26.30
2018-12-06T12:06:07.118Z,16.00
2018-12-06T12:07:07.105Z,27.90
2018-12-06T12:08:07.023Z,19.10
2018-12-06T12:09:07.119Z,28.60
2018-12-06T12:10:06.927Z,15.20
2018-12-06T12:11:06.877Z,41.50
2018-12-06T12:12:06.828Z,16.60
2018-12-06T12:13:06.780Z,15.70
2018-12-06T12:14:06.924Z,24.00
2018-12-06T12:15:06.677Z,34.50
2018-12-06T12:16:06.634Z,40.80
2018-12-06T12:17:06.602Z,31.30
2018-12-06T12:18:06.616Z,22.20
2018-12-06T12:19:06.722Z,21.40
2018-12-06T12:20:06.441Z,23.30
2018-12-06T12:21:06.387Z,14.70
2018-12-06T12:22:06.436Z,20.30
2018-12-06T12:23:06.294Z,22.60
2018-12-06T12:24:06.424Z,13.10
2018-12-06T12:25:06.195Z,16.60
2018-12-06T12:26:06.147Z,28.80
2018-12-06T12:27:06.105Z,28.50
2018-12-06T12:28:06.048Z,27.80
2018-12-06T12:29:06.230Z,15.60
2018-12-06T12:30:05.951Z,14.50
2018-12-06T12:31:05.906Z,13.00
2018-12-06T12:32:05.872Z,12.40
2018-12-06T12:33:05.808Z,12.30
2018-12-06T12:34:05.927Z,11.20
2018-12-06T12:35:05.710Z,11.70
2018-12-06T12:36:05.662Z,13.00
2018-12-06T12:37:05.629Z,12.20
2018-12-06T12:38:05.567Z,10.40
2018-12-06T12:39:05.519Z,12.10
2018-12-06T12:40:05.467Z,9.90
2018-12-06T12:41:05.627Z,10.80
2018-12-06T12:42:05.448Z,10.40
2018-12-06T12:43:05.325Z,10.60
2018-12-06T12:44:05.288Z,11.00
2018-12-06T12:45:05.222Z,11.00
2018-12-06T12:46:05.334Z,9.60
2018-12-06T12:47:05.123Z,9.50
2018-12-06T12:48:05.073Z,10.30
2018-12-06T12:49:05.046Z,9.70
2018-12-06T12:50:04.987Z,9.90
2018-12-06T12:51:04.933Z,12.50
2018-12-06T12:52:04.899Z,11.10